sensor_id;sensor_type;location;lat;lon;timestamp;P1;durP1;ratioP1;P2;durP2;ratioP2
68074;SDS011;54864;52.002;5.468;2022-12-07T00:00:20;14.52;;;10.65;;
68074;SDS011;54864;52.002;5.468;2022-12-07T00:01:25;13.88;;;10.82;;
68074;SDS011;54864;52.002;5.468;2022-12-07T00:02:32;15.90;;;10.20;;
68074;SDS011;54864;52.002;5.468;2022-12-07T00:03:41;16.30;;;10.00;;
68074;SDS011;54864;52.002;5.468;2022-12-07T00:05:50;13.07;;;10.15;;
68074;SDS011;54864;52.002;5.468;2022-12-07T00:06:53;17.63;;;10.02;;
68074;SDS011;54864;52.002;5.468;2022-12-07T00:08:00;12.73;;;9.95;;
68074;SDS011;54864;52.002;5.468;2022-12-07T00:09:01;14.50;;;10.07;;
68074;SDS011;54864;52.002;5.468;2022-12-07T00:10:12;14.93;;;10.35;;
68074;SDS011;54864;52.002;5.468;2022-12-07T00:11:13;14.88;;;9.95;;
68074;SDS011;54864;52.002;5.468;2022-12-07T00:12:23;13.68;;;9.70;;
68074;SDS011;54864;52.002;5.468;2022-12-07T00:13:26;13.73;;;10.00;;
68074;SDS011;54864;52.002;5.468;2022-12-07T00:14:28;14.70;;;9.90;;
68074;SDS011;54864;52.002;5.468;2022-12-07T00:15:33;14.52;;;10.07;;
68074;SDS011;54864;52.002;5.468;2022-12-07T00:16:53;12.30;;;9.45;;
68074;SDS011;54864;52.002;5.468;2022-12-07T00:17:55;12.65;;;9.75;;
68074;SDS011;54864;52.002;5.468;2022-12-07T00:19:25;15.37;;;9.30;;
68074;SDS011;54864;52.002;5.468;2022-12-07T00:20:27;16.13;;;10.02;;
68074;SDS011;54864;52.002;5.468;2022-12-07T00:21:30;14.15;;;9.23;;
68074;SDS011;54864;52.002;5.468;2022-12-07T00:22:40;13.93;;;9.77;;
68074;SDS011;54864;52.002;5.468;2022-12-07T00:23:43;15.40;;;9.60;;
68074;SDS011;54864;52.002;5.468;2022-12-07T00:24:55;15.55;;;9.48;;
68074;SDS011;54864;52.002;5.468;2022-12-07T00:26:06;13.38;;;9.70;;
68074;SDS011;54864;52.002;5.468;2022-12-07T00:27:13;11.80;;;9.18;;
68074;SDS011;54864;52.002;5.468;2022-12-07T00:28:31;12.35;;;9.35;;
68074;SDS011;54864;52.002;5.468;2022-12-07T00:29:33;13.50;;;9.88;;
68074;SDS011;54864;52.002;5.468;2022-12-07T00:30:37;11.10;;;9.60;;
68074;SDS011;54864;52.002;5.468;2022-12-07T00:33:09;16.05;;;9.10;;
68074;SDS011;54864;52.002;5.468;2022-12-07T00:34:12;15.20;;;9.48;;
68074;SDS011;54864;52.002;5.468;2022-12-07T00:35:25;12.18;;;9.32;;
68074;SDS011;54864;52.002;5.468;2022-12-07T00:36:27;10.52;;;8.73;;
68074;SDS011;54864;52.002;5.468;2022-12-07T00:37:29;11.63;;;8.90;;
68074;SDS011;54864;52.002;5.468;2022-12-07T00:38:39;11.82;;;8.48;;
68074;SDS011;54864;52.002;5.468;2022-12-07T00:39:42;12.15;;;8.90;;
68074;SDS011;54864;52.002;5.468;2022-12-07T00:40:55;11.50;;;8.90;;
68074;SDS011;54864;52.002;5.468;2022-12-07T00:42:01;13.73;;;8.43;;
68074;SDS011;54864;52.002;5.468;2022-12-07T00:43:03;16.75;;;9.00;;
68074;SDS011;54864;52.002;5.468;2022-12-07T00:44:11;13.20;;;8.70;;
68074;SDS011;54864;52.002;5.468;2022-12-07T00:45:16;12.98;;;8.35;;
68074;SDS011;54864;52.002;5.468;2022-12-07T00:46:28;11.15;;;8.88;;
68074;SDS011;54864;52.002;5.468;2022-12-07T00:47:30;13.27;;;8.07;;
68074;SDS011;54864;52.002;5.468;2022-12-07T00:48:33;9.75;;;8.20;;
68074;SDS011;54864;52.002;5.468;2022-12-07T00:49:35;11.48;;;8.57;;
68074;SDS011;54864;52.002;5.468;2022-12-07T00:50:37;11.05;;;8.18;;
68074;SDS011;54864;52.002;5.468;2022-12-07T00:51:39;13.82;;;8.60;;
68074;SDS011;54864;52.002;5.468;2022-12-07T00:52:45;12.45;;;8.02;;
68074;SDS011;54864;52.002;5.468;2022-12-07T00:53:56;17.08;;;8.35;;
68074;SDS011;54864;52.002;5.468;2022-12-07T00:55:02;12.52;;;8.43;;
68074;SDS011;54864;52.002;5.468;2022-12-07T00:56:09;14.48;;;8.57;;
68074;SDS011;54864;52.002;5.468;2022-12-07T00:57:22;12.25;;;7.97;;
68074;SDS011;54864;52.002;5.468;2022-12-07T00:58:29;14.25;;;8.02;;
68074;SDS011;54864;52.002;5.468;2022-12-07T01:00:41;14.00;;;8.40;;
68074;SDS011;54864;52.002;5.468;2022-12-07T01:01:52;12.95;;;8.70;;
68074;SDS011;54864;52.002;5.468;2022-12-07T01:02:55;11.20;;;7.80;;
68074;SDS011;54864;52.002;5.468;2022-12-07T01:04:10;12.98;;;9.05;;
68074;SDS011;54864;52.002;5.468;2022-12-07T01:05:11;11.50;;;7.65;;
68074;SDS011;54864;52.002;5.468;2022-12-07T01:06:14;12.38;;;7.85;;
68074;SDS011;54864;52.002;5.468;2022-12-07T01:07:16;12.88;;;7.88;;
68074;SDS011;54864;52.002;5.468;2022-12-07T01:08:22;10.32;;;7.45;;
68074;SDS011;54864;52.002;5.468;2022-12-07T01:10:04;12.02;;;7.68;;
68074;SDS011;54864;52.002;5.468;2022-12-07T01:11:09;10.75;;;7.63;;
68074;SDS011;54864;52.002;5.468;2022-12-07T01:12:21;10.38;;;7.70;;
68074;SDS011;54864;52.002;5.468;2022-12-07T01:13:25;12.25;;;7.40;;
68074;SDS011;54864;52.002;5.468;2022-12-07T01:14:32;13.50;;;7.38;;
68074;SDS011;54864;52.002;5.468;2022-12-07T01:15:38;10.07;;;7.55;;
68074;SDS011;54864;52.002;5.468;2022-12-07T01:16:40;13.00;;;7.60;;
68074;SDS011;54864;52.002;5.468;2022-12-07T01:17:48;12.45;;;7.22;;
68074;SDS011;54864;52.002;5.468;2022-12-07T01:18:56;10.70;;;7.18;;
68074;SDS011;54864;52.002;5.468;2022-12-07T01:20:00;10.57;;;7.00;;
68074;SDS011;54864;52.002;5.468;2022-12-07T01:21:02;12.60;;;7.18;;
68074;SDS011;54864;52.002;5.468;2022-12-07T01:22:16;9.70;;;7.03;;
68074;SDS011;54864;52.002;5.468;2022-12-07T01:23:21;12.10;;;7.73;;
68074;SDS011;54864;52.002;5.468;2022-12-07T01:24:27;9.80;;;6.82;;
68074;SDS011;54864;52.002;5.468;2022-12-07T01:25:42;10.52;;;7.05;;
68074;SDS011;54864;52.002;5.468;2022-12-07T01:26:49;9.85;;;7.45;;
68074;SDS011;54864;52.002;5.468;2022-12-07T01:27:53;10.48;;;7.63;;
68074;SDS011;54864;52.002;5.468;2022-12-07T01:28:54;11.90;;;7.40;;
68074;SDS011;54864;52.002;5.468;2022-12-07T01:30:07;9.73;;;6.65;;
68074;SDS011;54864;52.002;5.468;2022-12-07T01:31:15;9.40;;;7.20;;
68074;SDS011;54864;52.002;5.468;2022-12-07T01:32:30;10.93;;;7.68;;
68074;SDS011;54864;52.002;5.468;2022-12-07T01:33:33;13.68;;;7.05;;
68074;SDS011;54864;52.002;5.468;2022-12-07T01:34:39;9.60;;;6.75;;
68074;SDS011;54864;52.002;5.468;2022-12-07T01:35:40;11.43;;;6.95;;
68074;SDS011;54864;52.002;5.468;2022-12-07T01:37:12;11.90;;;7.00;;
68074;SDS011;54864;52.002;5.468;2022-12-07T01:38:13;11.45;;;7.13;;
68074;SDS011;54864;52.002;5.468;2022-12-07T01:39:17;9.03;;;6.67;;
68074;SDS011;54864;52.002;5.468;2022-12-07T01:40:21;12.87;;;7.73;;
68074;SDS011;54864;52.002;5.468;2022-12-07T01:41:31;11.65;;;7.05;;
68074;SDS011;54864;52.002;5.468;2022-12-07T01:42:50;11.90;;;7.53;;
68074;SDS011;54864;52.002;5.468;2022-12-07T01:45:36;13.35;;;7.22;;
68074;SDS011;54864;52.002;5.468;2022-12-07T01:46:52;10.53;;;7.00;;
68074;SDS011;54864;52.002;5.468;2022-12-07T01:48:02;11.20;;;6.95;;
68074;SDS011;54864;52.002;5.468;2022-12-07T01:49:12;10.13;;;6.97;;
68074;SDS011;54864;52.002;5.468;2022-12-07T01:50:30;9.88;;;7.10;;
68074;SDS011;54864;52.002;5.468;2022-12-07T01:51:40;14.90;;;6.97;;
68074;SDS011;54864;52.002;5.468;2022-12-07T01:52:48;10.75;;;6.93;;
68074;SDS011;54864;52.002;5.468;2022-12-07T01:53:58;10.85;;;6.68;;
68074;SDS011;54864;52.002;5.468;2022-12-07T01:55:03;8.85;;;6.70;;
68074;SDS011;54864;52.002;5.468;2022-12-07T01:56:11;9.38;;;6.82;;
68074;SDS011;54864;52.002;5.468;2022-12-07T01:57:34;10.20;;;6.57;;
68074;SDS011;54864;52.002;5.468;2022-12-07T01:59:14;9.95;;;6.43;;
68074;SDS011;54864;52.002;5.468;2022-12-07T02:00:24;9.50;;;6.18;;
68074;SDS011;54864;52.002;5.468;2022-12-07T02:01:27;11.40;;;6.30;;
68074;SDS011;54864;52.002;5.468;2022-12-07T02:02:30;10.40;;;6.47;;
68074;SDS011;54864;52.002;5.468;2022-12-07T02:03:48;11.43;;;6.72;;
68074;SDS011;54864;52.002;5.468;2022-12-07T02:04:52;8.93;;;6.30;;
68074;SDS011;54864;52.002;5.468;2022-12-07T02:06:10;10.52;;;6.05;;
68074;SDS011;54864;52.002;5.468;2022-12-07T02:07:22;9.20;;;6.32;;
68074;SDS011;54864;52.002;5.468;2022-12-07T02:09:53;12.38;;;6.70;;
68074;SDS011;54864;52.002;5.468;2022-12-07T02:10:55;9.40;;;6.20;;
68074;SDS011;54864;52.002;5.468;2022-12-07T02:12:02;9.30;;;6.38;;
68074;SDS011;54864;52.002;5.468;2022-12-07T02:13:13;8.73;;;6.45;;
68074;SDS011;54864;52.002;5.468;2022-12-07T02:14:19;12.02;;;5.93;;
68074;SDS011;54864;52.002;5.468;2022-12-07T02:15:21;10.15;;;6.32;;
68074;SDS011;54864;52.002;5.468;2022-12-07T02:16:38;10.00;;;6.20;;
68074;SDS011;54864;52.002;5.468;2022-12-07T02:18:07;8.73;;;6.35;;
68074;SDS011;54864;52.002;5.468;2022-12-07T02:21:30;9.38;;;6.32;;
68074;SDS011;54864;52.002;5.468;2022-12-07T02:23:07;10.65;;;6.82;;
68074;SDS011;54864;52.002;5.468;2022-12-07T02:24:57;7.93;;;6.07;;
68074;SDS011;54864;52.002;5.468;2022-12-07T02:26:36;11.52;;;6.70;;
68074;SDS011;54864;52.002;5.468;2022-12-07T02:28:29;11.77;;;6.47;;
68074;SDS011;54864;52.002;5.468;2022-12-07T02:29:54;11.45;;;6.00;;
68074;SDS011;54864;52.002;5.468;2022-12-07T02:31:05;9.68;;;6.03;;
68074;SDS011;54864;52.002;5.468;2022-12-07T02:32:21;10.35;;;6.40;;
68074;SDS011;54864;52.002;5.468;2022-12-07T02:33:31;14.15;;;6.20;;
68074;SDS011;54864;52.002;5.468;2022-12-07T02:34:53;12.68;;;6.60;;
68074;SDS011;54864;52.002;5.468;2022-12-07T02:36:08;9.35;;;6.03;;
68074;SDS011;54864;52.002;5.468;2022-12-07T02:37:29;10.15;;;6.45;;
68074;SDS011;54864;52.002;5.468;2022-12-07T02:38:47;11.73;;;6.95;;
68074;SDS011;54864;52.002;5.468;2022-12-07T02:40:17;10.48;;;6.70;;
68074;SDS011;54864;52.002;5.468;2022-12-07T02:41:33;12.90;;;7.28;;
68074;SDS011;54864;52.002;5.468;2022-12-07T02:42:42;13.90;;;7.30;;
68074;SDS011;54864;52.002;5.468;2022-12-07T02:43:55;10.45;;;7.22;;
68074;SDS011;54864;52.002;5.468;2022-12-07T02:45:06;13.35;;;7.47;;
68074;SDS011;54864;52.002;5.468;2022-12-07T02:46:28;9.52;;;7.05;;
68074;SDS011;54864;52.002;5.468;2022-12-07T02:47:56;11.95;;;7.32;;
68074;SDS011;54864;52.002;5.468;2022-12-07T02:49:00;13.85;;;7.28;;
68074;SDS011;54864;52.002;5.468;2022-12-07T02:50:05;12.93;;;7.13;;
68074;SDS011;54864;52.002;5.468;2022-12-07T02:51:08;11.23;;;7.22;;
68074;SDS011;54864;52.002;5.468;2022-12-07T02:52:16;13.07;;;6.60;;
68074;SDS011;54864;52.002;5.468;2022-12-07T02:53:29;10.05;;;6.50;;
68074;SDS011;54864;52.002;5.468;2022-12-07T02:54:33;11.85;;;6.95;;
68074;SDS011;54864;52.002;5.468;2022-12-07T02:55:38;12.70;;;6.18;;
68074;SDS011;54864;52.002;5.468;2022-12-07T02:56:48;9.85;;;6.40;;
68074;SDS011;54864;52.002;5.468;2022-12-07T02:58:06;10.35;;;5.82;;
68074;SDS011;54864;52.002;5.468;2022-12-07T02:59:40;13.40;;;6.85;;
68074;SDS011;54864;52.002;5.468;2022-12-07T03:01:24;10.18;;;6.47;;
68074;SDS011;54864;52.002;5.468;2022-12-07T03:02:56;10.95;;;6.85;;
68074;SDS011;54864;52.002;5.468;2022-12-07T03:04:08;10.07;;;5.95;;
68074;SDS011;54864;52.002;5.468;2022-12-07T03:07:25;12.73;;;6.28;;
68074;SDS011;54864;52.002;5.468;2022-12-07T03:08:49;10.75;;;6.53;;
68074;SDS011;54864;52.002;5.468;2022-12-07T03:10:13;11.57;;;6.70;;
68074;SDS011;54864;52.002;5.468;2022-12-07T03:11:29;8.63;;;5.95;;
68074;SDS011;54864;52.002;5.468;2022-12-07T03:12:52;9.27;;;6.03;;
68074;SDS011;54864;52.002;5.468;2022-12-07T03:14:24;13.20;;;6.32;;
68074;SDS011;54864;52.002;5.468;2022-12-07T03:15:42;13.02;;;6.95;;
68074;SDS011;54864;52.002;5.468;2022-12-07T03:18:13;10.40;;;6.32;;
68074;SDS011;54864;52.002;5.468;2022-12-07T03:19:34;10.77;;;6.32;;
68074;SDS011;54864;52.002;5.468;2022-12-07T03:20:38;9.38;;;5.82;;
68074;SDS011;54864;52.002;5.468;2022-12-07T03:21:57;10.25;;;6.28;;
68074;SDS011;54864;52.002;5.468;2022-12-07T03:23:07;10.05;;;6.20;;
68074;SDS011;54864;52.002;5.468;2022-12-07T03:24:18;10.30;;;5.82;;
68074;SDS011;54864;52.002;5.468;2022-12-07T03:25:24;10.23;;;6.45;;
68074;SDS011;54864;52.002;5.468;2022-12-07T03:26:34;10.43;;;6.05;;
68074;SDS011;54864;52.002;5.468;2022-12-07T03:27:38;11.98;;;6.30;;
68074;SDS011;54864;52.002;5.468;2022-12-07T03:28:58;11.82;;;6.03;;
68074;SDS011;54864;52.002;5.468;2022-12-07T03:30:13;12.70;;;6.30;;
68074;SDS011;54864;52.002;5.468;2022-12-07T03:31:25;11.02;;;6.38;;
68074;SDS011;54864;52.002;5.468;2022-12-07T03:32:34;10.80;;;6.33;;
68074;SDS011;54864;52.002;5.468;2022-12-07T03:33:51;10.00;;;6.80;;
68074;SDS011;54864;52.002;5.468;2022-12-07T03:35:14;12.03;;;6.37;;
68074;SDS011;54864;52.002;5.468;2022-12-07T03:36:31;14.82;;;6.63;;
68074;SDS011;54864;52.002;5.468;2022-12-07T03:37:48;13.55;;;6.68;;
68074;SDS011;54864;52.002;5.468;2022-12-07T03:38:57;12.55;;;6.63;;
68074;SDS011;54864;52.002;5.468;2022-12-07T03:40:16;14.52;;;6.88;;
68074;SDS011;54864;52.002;5.468;2022-12-07T03:41:32;10.18;;;6.47;;
68074;SDS011;54864;52.002;5.468;2022-12-07T03:42:55;13.73;;;7.00;;
68074;SDS011;54864;52.002;5.468;2022-12-07T03:44:02;11.50;;;6.65;;
68074;SDS011;54864;52.002;5.468;2022-12-07T03:45:06;14.40;;;6.00;;
68074;SDS011;54864;52.002;5.468;2022-12-07T03:47:26;12.07;;;5.95;;
68074;SDS011;54864;52.002;5.468;2022-12-07T03:48:41;11.23;;;6.43;;
68074;SDS011;54864;52.002;5.468;2022-12-07T03:49:58;11.07;;;6.25;;
68074;SDS011;54864;52.002;5.468;2022-12-07T03:51:13;11.60;;;5.93;;
68074;SDS011;54864;52.002;5.468;2022-12-07T03:52:30;11.88;;;5.93;;
68074;SDS011;54864;52.002;5.468;2022-12-07T03:53:39;9.13;;;5.57;;
68074;SDS011;54864;52.002;5.468;2022-12-07T03:54:56;11.27;;;5.75;;
68074;SDS011;54864;52.002;5.468;2022-12-07T03:56:03;10.02;;;5.50;;
68074;SDS011;54864;52.002;5.468;2022-12-07T03:57:10;11.68;;;6.18;;
68074;SDS011;54864;52.002;5.468;2022-12-07T03:58:14;10.20;;;5.50;;
68074;SDS011;54864;52.002;5.468;2022-12-07T03:59:20;9.88;;;6.00;;
68074;SDS011;54864;52.002;5.468;2022-12-07T04:00:25;10.25;;;5.78;;
68074;SDS011;54864;52.002;5.468;2022-12-07T04:01:31;11.88;;;5.90;;
68074;SDS011;54864;52.002;5.468;2022-12-07T04:02:33;9.50;;;5.45;;
68074;SDS011;54864;52.002;5.468;2022-12-07T04:03:43;10.83;;;5.90;;
68074;SDS011;54864;52.002;5.468;2022-12-07T04:04:59;8.40;;;5.68;;
68074;SDS011;54864;52.002;5.468;2022-12-07T04:06:03;9.68;;;5.35;;
68074;SDS011;54864;52.002;5.468;2022-12-07T04:07:08;8.55;;;5.78;;
68074;SDS011;54864;52.002;5.468;2022-12-07T04:08:15;9.70;;;5.40;;
68074;SDS011;54864;52.002;5.468;2022-12-07T04:09:23;9.70;;;5.47;;
68074;SDS011;54864;52.002;5.468;2022-12-07T04:10:25;7.53;;;5.18;;
68074;SDS011;54864;52.002;5.468;2022-12-07T04:11:28;8.60;;;5.35;;
68074;SDS011;54864;52.002;5.468;2022-12-07T04:12:36;12.70;;;5.57;;
68074;SDS011;54864;52.002;5.468;2022-12-07T04:13:40;11.40;;;5.57;;
68074;SDS011;54864;52.002;5.468;2022-12-07T04:15:04;11.68;;;5.35;;
68074;SDS011;54864;52.002;5.468;2022-12-07T04:16:10;11.73;;;5.88;;
68074;SDS011;54864;52.002;5.468;2022-12-07T04:17:11;9.68;;;5.60;;
68074;SDS011;54864;52.002;5.468;2022-12-07T04:18:13;8.90;;;5.63;;
68074;SDS011;54864;52.002;5.468;2022-12-07T04:19:14;12.18;;;5.70;;
68074;SDS011;54864;52.002;5.468;2022-12-07T04:20:23;11.68;;;5.63;;
68074;SDS011;54864;52.002;5.468;2022-12-07T04:21:24;9.48;;;5.80;;
68074;SDS011;54864;52.002;5.468;2022-12-07T04:22:31;12.52;;;5.70;;
68074;SDS011;54864;52.002;5.468;2022-12-07T04:23:32;8.20;;;5.70;;
68074;SDS011;54864;52.002;5.468;2022-12-07T04:24:38;13.32;;;5.88;;
68074;SDS011;54864;52.002;5.468;2022-12-07T04:25:42;11.00;;;5.75;;
68074;SDS011;54864;52.002;5.468;2022-12-07T04:26:48;13.85;;;5.95;;
68074;SDS011;54864;52.002;5.468;2022-12-07T04:27:50;9.05;;;5.60;;
68074;SDS011;54864;52.002;5.468;2022-12-07T04:28:55;7.93;;;5.37;;
68074;SDS011;54864;52.002;5.468;2022-12-07T04:29:59;7.70;;;5.68;;
68074;SDS011;54864;52.002;5.468;2022-12-07T04:31:01;9.43;;;5.18;;
68074;SDS011;54864;52.002;5.468;2022-12-07T04:32:08;8.68;;;5.57;;
68074;SDS011;54864;52.002;5.468;2022-12-07T04:33:11;6.90;;;5.00;;
68074;SDS011;54864;52.002;5.468;2022-12-07T04:34:13;6.85;;;5.25;;
68074;SDS011;54864;52.002;5.468;2022-12-07T04:35:24;12.40;;;5.45;;
68074;SDS011;54864;52.002;5.468;2022-12-07T04:36:26;9.38;;;5.38;;
68074;SDS011;54864;52.002;5.468;2022-12-07T04:37:28;8.77;;;5.47;;
68074;SDS011;54864;52.002;5.468;2022-12-07T04:38:31;9.82;;;5.20;;
68074;SDS011;54864;52.002;5.468;2022-12-07T04:39:33;9.82;;;5.85;;
68074;SDS011;54864;52.002;5.468;2022-12-07T04:40:36;12.45;;;5.60;;
68074;SDS011;54864;52.002;5.468;2022-12-07T04:41:38;10.20;;;6.32;;
68074;SDS011;54864;52.002;5.468;2022-12-07T04:42:42;11.55;;;6.07;;
68074;SDS011;54864;52.002;5.468;2022-12-07T04:43:43;8.23;;;5.43;;
68074;SDS011;54864;52.002;5.468;2022-12-07T04:44:47;9.10;;;5.30;;
68074;SDS011;54864;52.002;5.468;2022-12-07T04:45:48;10.40;;;5.60;;
68074;SDS011;54864;52.002;5.468;2022-12-07T04:46:51;8.77;;;5.88;;
68074;SDS011;54864;52.002;5.468;2022-12-07T04:47:57;11.98;;;5.13;;
68074;SDS011;54864;52.002;5.468;2022-12-07T04:48:58;12.38;;;5.50;;
68074;SDS011;54864;52.002;5.468;2022-12-07T04:50:01;9.68;;;5.40;;
68074;SDS011;54864;52.002;5.468;2022-12-07T04:51:07;7.78;;;5.20;;
68074;SDS011;54864;52.002;5.468;2022-12-07T04:52:22;10.95;;;5.28;;
68074;SDS011;54864;52.002;5.468;2022-12-07T04:53:27;8.55;;;5.22;;
68074;SDS011;54864;52.002;5.468;2022-12-07T04:54:28;10.52;;;5.72;;
68074;SDS011;54864;52.002;5.468;2022-12-07T04:55:33;8.77;;;5.10;;
68074;SDS011;54864;52.002;5.468;2022-12-07T04:56:37;8.48;;;5.38;;
68074;SDS011;54864;52.002;5.468;2022-12-07T04:57:39;13.50;;;5.55;;
68074;SDS011;54864;52.002;5.468;2022-12-07T04:58:43;8.77;;;4.95;;
68074;SDS011;54864;52.002;5.468;2022-12-07T05:01:19;7.30;;;5.23;;
68074;SDS011;54864;52.002;5.468;2022-12-07T05:02:28;9.18;;;5.32;;
68074;SDS011;54864;52.002;5.468;2022-12-07T05:03:29;9.30;;;5.32;;
68074;SDS011;54864;52.002;5.468;2022-12-07T05:04:31;11.07;;;5.10;;
68074;SDS011;54864;52.002;5.468;2022-12-07T05:05:32;13.30;;;5.85;;
68074;SDS011;54864;52.002;5.468;2022-12-07T05:06:40;13.95;;;5.82;;
68074;SDS011;54864;52.002;5.468;2022-12-07T05:07:42;12.70;;;5.80;;
68074;SDS011;54864;52.002;5.468;2022-12-07T05:08:56;14.27;;;5.97;;
68074;SDS011;54864;52.002;5.468;2022-12-07T05:10:02;12.07;;;5.72;;
68074;SDS011;54864;52.002;5.468;2022-12-07T05:12:13;12.23;;;5.85;;
68074;SDS011;54864;52.002;5.468;2022-12-07T05:13:15;15.27;;;6.30;;
68074;SDS011;54864;52.002;5.468;2022-12-07T05:14:19;9.23;;;5.70;;
68074;SDS011;54864;52.002;5.468;2022-12-07T05:15:27;9.68;;;5.60;;
68074;SDS011;54864;52.002;5.468;2022-12-07T05:16:28;11.70;;;5.45;;
68074;SDS011;54864;52.002;5.468;2022-12-07T05:17:32;8.88;;;5.05;;
68074;SDS011;54864;52.002;5.468;2022-12-07T05:18:36;11.25;;;5.35;;
68074;SDS011;54864;52.002;5.468;2022-12-07T05:19:37;9.55;;;4.95;;
68074;SDS011;54864;52.002;5.468;2022-12-07T05:20:39;11.18;;;5.38;;
68074;SDS011;54864;52.002;5.468;2022-12-07T05:21:44;10.80;;;4.60;;
68074;SDS011;54864;52.002;5.468;2022-12-07T05:22:54;10.85;;;4.63;;
68074;SDS011;54864;52.002;5.468;2022-12-07T05:23:54;7.72;;;4.53;;
68074;SDS011;54864;52.002;5.468;2022-12-07T05:24:57;8.55;;;5.00;;
68074;SDS011;54864;52.002;5.468;2022-12-07T05:26:01;10.93;;;5.57;;
68074;SDS011;54864;52.002;5.468;2022-12-07T05:27:03;12.85;;;5.10;;
68074;SDS011;54864;52.002;5.468;2022-12-07T05:28:05;9.93;;;5.15;;
68074;SDS011;54864;52.002;5.468;2022-12-07T05:29:10;18.10;;;4.90;;
68074;SDS011;54864;52.002;5.468;2022-12-07T05:30:18;9.23;;;4.88;;
68074;SDS011;54864;52.002;5.468;2022-12-07T05:31:22;7.93;;;4.50;;
68074;SDS011;54864;52.002;5.468;2022-12-07T05:32:26;8.52;;;5.07;;
68074;SDS011;54864;52.002;5.468;2022-12-07T05:33:27;10.77;;;4.65;;
68074;SDS011;54864;52.002;5.468;2022-12-07T05:34:32;9.93;;;4.43;;
68074;SDS011;54864;52.002;5.468;2022-12-07T05:35:37;10.60;;;4.95;;
68074;SDS011;54864;52.002;5.468;2022-12-07T05:36:39;7.30;;;4.28;;
68074;SDS011;54864;52.002;5.468;2022-12-07T05:37:47;11.38;;;4.78;;
68074;SDS011;54864;52.002;5.468;2022-12-07T05:38:53;9.65;;;4.30;;
68074;SDS011;54864;52.002;5.468;2022-12-07T05:39:54;7.78;;;4.03;;
68074;SDS011;54864;52.002;5.468;2022-12-07T05:40:59;8.95;;;4.30;;
68074;SDS011;54864;52.002;5.468;2022-12-07T05:42:06;10.57;;;4.20;;
68074;SDS011;54864;52.002;5.468;2022-12-07T05:43:17;9.02;;;4.32;;
68074;SDS011;54864;52.002;5.468;2022-12-07T05:44:20;8.85;;;4.28;;
68074;SDS011;54864;52.002;5.468;2022-12-07T05:45:25;7.47;;;3.80;;
68074;SDS011;54864;52.002;5.468;2022-12-07T05:46:26;9.60;;;4.47;;
68074;SDS011;54864;52.002;5.468;2022-12-07T05:47:38;9.77;;;4.45;;
68074;SDS011;54864;52.002;5.468;2022-12-07T05:48:41;11.32;;;4.45;;
68074;SDS011;54864;52.002;5.468;2022-12-07T05:49:44;8.23;;;3.80;;
68074;SDS011;54864;52.002;5.468;2022-12-07T05:50:51;15.55;;;4.30;;
68074;SDS011;54864;52.002;5.468;2022-12-07T05:51:53;6.10;;;4.10;;
68074;SDS011;54864;52.002;5.468;2022-12-07T05:52:59;7.82;;;4.15;;
68074;SDS011;54864;52.002;5.468;2022-12-07T05:54:02;8.15;;;4.10;;
68074;SDS011;54864;52.002;5.468;2022-12-07T05:55:10;7.25;;;4.15;;
68074;SDS011;54864;52.002;5.468;2022-12-07T05:56:13;9.10;;;3.90;;
68074;SDS011;54864;52.002;5.468;2022-12-07T05:57:16;8.15;;;4.50;;
68074;SDS011;54864;52.002;5.468;2022-12-07T05:58:18;5.82;;;3.97;;
68074;SDS011;54864;52.002;5.468;2022-12-07T05:59:37;6.35;;;4.13;;
68074;SDS011;54864;52.002;5.468;2022-12-07T06:00:42;9.65;;;3.92;;
68074;SDS011;54864;52.002;5.468;2022-12-07T06:01:47;9.48;;;4.18;;
68074;SDS011;54864;52.002;5.468;2022-12-07T06:02:52;9.85;;;3.90;;
68074;SDS011;54864;52.002;5.468;2022-12-07T06:03:53;7.30;;;3.80;;
68074;SDS011;54864;52.002;5.468;2022-12-07T06:04:55;7.25;;;4.15;;
68074;SDS011;54864;52.002;5.468;2022-12-07T06:05:57;8.07;;;4.10;;
68074;SDS011;54864;52.002;5.468;2022-12-07T06:06:59;7.50;;;4.53;;
68074;SDS011;54864;52.002;5.468;2022-12-07T06:08:04;9.90;;;4.30;;
68074;SDS011;54864;52.002;5.468;2022-12-07T06:09:05;8.03;;;3.90;;
68074;SDS011;54864;52.002;5.468;2022-12-07T06:10:12;6.95;;;3.78;;
68074;SDS011;54864;52.002;5.468;2022-12-07T06:11:13;9.48;;;4.10;;
68074;SDS011;54864;52.002;5.468;2022-12-07T06:12:32;10.40;;;4.07;;
68074;SDS011;54864;52.002;5.468;2022-12-07T06:13:48;7.78;;;4.35;;
68074;SDS011;54864;52.002;5.468;2022-12-07T06:14:52;7.72;;;4.22;;
68074;SDS011;54864;52.002;5.468;2022-12-07T06:15:54;6.47;;;4.15;;
68074;SDS011;54864;52.002;5.468;2022-12-07T06:16:55;10.02;;;4.05;;
68074;SDS011;54864;52.002;5.468;2022-12-07T06:18:04;10.77;;;4.60;;
68074;SDS011;54864;52.002;5.468;2022-12-07T06:19:07;9.93;;;4.53;;
68074;SDS011;54864;52.002;5.468;2022-12-07T06:20:16;7.03;;;4.10;;
68074;SDS011;54864;52.002;5.468;2022-12-07T06:21:23;9.30;;;4.03;;
68074;SDS011;54864;52.002;5.468;2022-12-07T06:22:26;6.00;;;3.90;;
68074;SDS011;54864;52.002;5.468;2022-12-07T06:23:31;7.70;;;4.07;;
68074;SDS011;54864;52.002;5.468;2022-12-07T06:24:33;9.25;;;4.13;;
68074;SDS011;54864;52.002;5.468;2022-12-07T06:25:36;8.35;;;3.72;;
68074;SDS011;54864;52.002;5.468;2022-12-07T06:26:37;5.15;;;3.78;;
68074;SDS011;54864;52.002;5.468;2022-12-07T06:27:57;10.52;;;3.97;;
68074;SDS011;54864;52.002;5.468;2022-12-07T06:29:00;11.73;;;4.00;;
68074;SDS011;54864;52.002;5.468;2022-12-07T06:30:03;9.15;;;3.97;;
68074;SDS011;54864;52.002;5.468;2022-12-07T06:31:11;7.50;;;4.20;;
68074;SDS011;54864;52.002;5.468;2022-12-07T06:32:12;6.28;;;3.55;;
68074;SDS011;54864;52.002;5.468;2022-12-07T06:33:16;9.90;;;4.00;;
68074;SDS011;54864;52.002;5.468;2022-12-07T06:34:17;8.90;;;4.00;;
68074;SDS011;54864;52.002;5.468;2022-12-07T06:35:26;9.10;;;4.45;;
68074;SDS011;54864;52.002;5.468;2022-12-07T06:36:27;10.40;;;4.30;;
68074;SDS011;54864;52.002;5.468;2022-12-07T06:37:29;9.53;;;3.73;;
68074;SDS011;54864;52.002;5.468;2022-12-07T06:38:33;6.80;;;4.18;;
68074;SDS011;54864;52.002;5.468;2022-12-07T06:39:37;9.55;;;4.00;;
68074;SDS011;54864;52.002;5.468;2022-12-07T06:40:43;11.77;;;4.00;;
68074;SDS011;54864;52.002;5.468;2022-12-07T06:41:44;5.05;;;3.58;;
68074;SDS011;54864;52.002;5.468;2022-12-07T06:42:52;6.65;;;3.75;;
68074;SDS011;54864;52.002;5.468;2022-12-07T06:43:53;10.52;;;3.78;;
68074;SDS011;54864;52.002;5.468;2022-12-07T06:44:55;9.27;;;3.78;;
68074;SDS011;54864;52.002;5.468;2022-12-07T06:45:57;8.23;;;3.65;;
68074;SDS011;54864;52.002;5.468;2022-12-07T06:46:58;6.85;;;3.28;;
68074;SDS011;54864;52.002;5.468;2022-12-07T06:48:00;5.53;;;3.50;;
68074;SDS011;54864;52.002;5.468;2022-12-07T06:49:14;7.88;;;4.00;;
68074;SDS011;54864;52.002;5.468;2022-12-07T06:50:17;6.65;;;4.05;;
68074;SDS011;54864;52.002;5.468;2022-12-07T06:51:18;12.03;;;4.27;;
68074;SDS011;54864;52.002;5.468;2022-12-07T06:52:21;7.18;;;3.58;;
68074;SDS011;54864;52.002;5.468;2022-12-07T06:53:24;7.15;;;4.57;;
68074;SDS011;54864;52.002;5.468;2022-12-07T06:54:27;9.32;;;4.05;;
68074;SDS011;54864;52.002;5.468;2022-12-07T06:55:30;7.53;;;3.58;;
68074;SDS011;54864;52.002;5.468;2022-12-07T06:56:31;7.40;;;3.70;;
68074;SDS011;54864;52.002;5.468;2022-12-07T06:57:35;11.83;;;4.20;;
68074;SDS011;54864;52.002;5.468;2022-12-07T06:58:36;8.07;;;3.50;;
68074;SDS011;54864;52.002;5.468;2022-12-07T06:59:50;6.40;;;3.60;;
68074;SDS011;54864;52.002;5.468;2022-12-07T07:00:52;7.70;;;3.53;;
68074;SDS011;54864;52.002;5.468;2022-12-07T07:01:53;8.47;;;3.67;;
68074;SDS011;54864;52.002;5.468;2022-12-07T07:03:02;8.23;;;4.10;;